createdAt,value
2018-02-02T00:02:01.932Z,3.70
2018-02-02T00:04:29.439Z,3.70
2018-02-02T00:06:57.721Z,3.60
2018-02-02T00:09:25.396Z,3.60
2018-02-02T00:11:52.885Z,3.60
2018-02-02T00:14:20.458Z,3.60
2018-02-02T00:16:47.925Z,3.50
2018-02-02T00:19:15.416Z,3.60
2018-02-02T00:21:42.888Z,3.60
2018-02-02T00:24:10.344Z,3.70
2018-02-02T00:26:37.821Z,3.70
2018-02-02T00:29:05.373Z,3.70
2018-02-02T00:31:32.859Z,3.80
2018-02-02T00:34:00.328Z,3.80
2018-02-02T00:36:27.788Z,3.80
2018-02-02T00:38:55.274Z,3.90
2018-02-02T00:41:22.752Z,3.90
2018-02-02T00:43:50.256Z,3.80
2018-02-02T00:46:17.724Z,3.80
2018-02-02T00:48:45.320Z,3.80
2018-02-02T00:51:19.358Z,3.90
2018-02-02T00:53:47.583Z,3.90
2018-02-02T00:56:15.060Z,3.90
2018-02-02T00:58:42.555Z,3.90
2018-02-02T01:01:10.093Z,4.00
2018-02-02T01:03:37.556Z,4.00
2018-02-02T01:06:05.044Z,4.00
2018-02-02T01:08:32.508Z,4.00
2018-02-02T01:10:59.968Z,4.10
2018-02-02T01:13:27.440Z,4.10
2018-02-02T01:15:54.904Z,4.10
2018-02-02T01:18:22.445Z,4.00
2018-02-02T01:20:49.896Z,4.00
2018-02-02T01:23:18.196Z,4.00
2018-02-02T01:25:46.480Z,4.10
2018-02-02T01:28:14.712Z,4.10
2018-02-02T01:30:42.300Z,4.10
2018-02-02T01:33:09.764Z,4.10
2018-02-02T01:35:37.300Z,4.00
2018-02-02T01:38:04.821Z,4.10
2018-02-02T01:40:33.097Z,4.10
2018-02-02T01:43:00.569Z,4.10
2018-02-02T01:45:28.516Z,4.10
2018-02-02T01:48:07.940Z,4.00
2018-02-02T01:50:36.192Z,4.10
2018-02-02T01:53:03.740Z,4.00
2018-02-02T01:55:31.228Z,4.00
2018-02-02T01:57:58.711Z,4.00
2018-02-02T02:00:26.271Z,4.10
2018-02-02T02:02:53.744Z,4.00
2018-02-02T02:05:21.228Z,4.00
2018-02-02T02:07:48.710Z,4.10
2018-02-02T02:10:16.169Z,4.20
2018-02-02T02:12:43.829Z,4.20
2018-02-02T02:15:11.400Z,4.30
2018-02-02T02:17:38.968Z,4.20
2018-02-02T02:20:06.431Z,4.20
2018-02-02T02:22:33.920Z,4.20
2018-02-02T02:25:01.397Z,4.20
2018-02-02T02:27:28.893Z,4.10
2018-02-02T02:29:56.352Z,4.20
2018-02-02T02:32:24.584Z,4.20
2018-02-02T02:34:52.073Z,4.20
2018-02-02T02:37:19.644Z,4.20
2018-02-02T02:39:47.225Z,4.20
2018-02-02T02:42:14.787Z,4.10
2018-02-02T02:44:42.256Z,4.20
2018-02-02T02:47:09.835Z,4.10
2018-02-02T02:49:37.400Z,4.10
2018-02-02T02:52:04.861Z,3.90
2018-02-02T02:54:32.464Z,3.80
2018-02-02T02:57:00.014Z,3.70
2018-02-02T02:59:27.476Z,3.50
2018-02-02T03:01:54.959Z,3.40
2018-02-02T03:04:22.524Z,3.30
2018-02-02T03:06:49.985Z,3.20
2018-02-02T03:09:17.475Z,3.30
2018-02-02T03:11:44.948Z,3.30
2018-02-02T03:14:12.416Z,3.20
2018-02-02T03:16:39.902Z,3.10
2018-02-02T03:19:08.133Z,3.00
2018-02-02T03:21:35.731Z,3.00
2018-02-02T03:24:03.207Z,3.00
2018-02-02T03:26:30.776Z,3.00
2018-02-02T03:28:58.244Z,3.00
2018-02-02T03:31:25.712Z,3.10
2018-02-02T03:33:53.317Z,3.10
2018-02-02T03:36:21.552Z,3.10
2018-02-02T03:38:49.798Z,3.10
2018-02-02T03:41:18.043Z,3.00
2018-02-02T03:43:45.515Z,3.10
2018-02-02T03:46:12.992Z,3.00
2018-02-02T03:48:40.452Z,3.10
2018-02-02T03:51:07.952Z,3.10
2018-02-02T03:53:36.211Z,3.10
2018-02-02T03:56:03.672Z,3.10
2018-02-02T03:58:31.136Z,3.10
2018-02-02T04:00:58.597Z,3.00
2018-02-02T04:03:26.139Z,3.10
2018-02-02T04:05:54.368Z,3.20
2018-02-02T04:08:21.840Z,3.20
2018-02-02T04:10:49.321Z,3.20
2018-02-02T04:13:16.892Z,3.20
2018-02-02T04:15:44.400Z,3.20
2018-02-02T04:18:12.632Z,3.20
2018-02-02T04:20:40.092Z,3.20
2018-02-02T04:23:07.581Z,3.20
2018-02-02T04:25:35.048Z,3.10
2018-02-02T04:28:02.533Z,3.10
2018-02-02T04:30:30.020Z,3.20
2018-02-02T04:32:57.522Z,3.20
2018-02-02T04:35:27.627Z,3.10
2018-02-02T04:37:55.860Z,3.20
2018-02-02T04:40:23.359Z,3.20
2018-02-02T04:42:50.834Z,3.10
2018-02-02T04:45:18.295Z,3.20
2018-02-02T04:47:45.864Z,3.30
2018-02-02T04:50:13.348Z,3.30
2018-02-02T04:52:40.813Z,3.30
2018-02-02T04:55:08.272Z,3.30
2018-02-02T04:57:35.755Z,3.40
2018-02-02T05:00:03.236Z,3.30
2018-02-02T05:02:30.788Z,3.30
2018-02-02T05:04:58.360Z,3.30
2018-02-02T05:07:25.826Z,3.30
2018-02-02T05:09:53.300Z,3.20
2018-02-02T05:12:20.772Z,3.20
2018-02-02T05:14:48.240Z,3.20
2018-02-02T05:17:15.724Z,3.20
2018-02-02T05:19:43.216Z,3.10
2018-02-02T05:22:11.456Z,3.20
2018-02-02T05:24:38.951Z,3.20
2018-02-02T05:27:06.435Z,3.20
2018-02-02T05:29:34.675Z,3.10
2018-02-02T05:32:02.155Z,3.10
2018-02-02T05:34:29.882Z,3.10
2018-02-02T05:36:58.121Z,3.10
2018-02-02T05:39:25.588Z,3.00
2018-02-02T05:41:53.168Z,3.00
2018-02-02T05:44:20.640Z,3.00
2018-02-02T05:46:48.108Z,3.00
2018-02-02T05:49:15.584Z,3.00
2018-02-02T05:51:43.397Z,2.90
2018-02-02T05:54:11.627Z,2.90
2018-02-02T05:56:39.107Z,2.80
2018-02-02T05:59:06.584Z,2.70
2018-02-02T06:01:34.078Z,2.70
2018-02-02T06:04:02.312Z,2.50
2018-02-02T06:06:29.852Z,2.50
2018-02-02T06:08:57.376Z,2.60
2018-02-02T06:11:24.943Z,2.50
2018-02-02T06:13:52.428Z,2.50
2018-02-02T06:16:20.008Z,2.60
2018-02-02T06:18:47.536Z,2.60
2018-02-02T06:21:15.036Z,2.70
2018-02-02T06:23:42.495Z,2.70
2018-02-02T06:26:09.968Z,2.80
2018-02-02T06:28:37.548Z,2.80
2018-02-02T06:31:05.020Z,2.90
2018-02-02T06:33:32.579Z,2.90
2018-02-02T06:36:00.081Z,3.00
2018-02-02T06:38:28.341Z,3.00
2018-02-02T06:40:55.800Z,3.00
2018-02-02T06:43:23.285Z,3.10
2018-02-02T06:45:50.756Z,3.10
2018-02-02T06:48:18.277Z,3.10
2018-02-02T06:50:45.748Z,3.20
2018-02-02T06:53:13.263Z,3.20
2018-02-02T06:55:40.723Z,3.30
2018-02-02T06:58:08.208Z,3.30
2018-02-02T07:00:35.675Z,3.40
2018-02-02T07:03:03.244Z,3.50
2018-02-02T07:05:30.724Z,3.60
2018-02-02T07:07:58.196Z,3.60
2018-02-02T07:10:25.756Z,3.70
2018-02-02T07:12:53.325Z,3.80
2018-02-02T07:15:20.788Z,3.80
2018-02-02T07:17:48.260Z,3.80
2018-02-02T07:20:15.748Z,3.80
2018-02-02T07:22:43.356Z,3.90
2018-02-02T07:25:11.576Z,4.00
2018-02-02T07:27:39.056Z,4.00
2018-02-02T07:30:06.533Z,4.00
2018-02-02T07:32:34.032Z,4.00
2018-02-02T07:35:02.286Z,4.20
2018-02-02T07:37:29.915Z,4.20
2018-02-02T07:39:57.376Z,4.20
2018-02-02T07:42:24.836Z,4.30
2018-02-02T07:44:53.077Z,4.30
2018-02-02T07:47:20.540Z,4.30
2018-02-02T07:49:48.246Z,4.30
2018-02-02T07:52:15.820Z,4.30
2018-02-02T07:54:43.376Z,4.40
2018-02-02T07:57:10.998Z,4.50
2018-02-02T07:59:39.244Z,4.40
2018-02-02T08:02:06.716Z,4.40
2018-02-02T08:04:34.188Z,4.40
2018-02-02T08:07:02.188Z,4.40
2018-02-02T08:09:30.464Z,4.40
2018-02-02T08:11:58.038Z,4.40
2018-02-02T08:14:25.504Z,4.40
2018-02-02T08:16:53.164Z,4.50
2018-02-02T08:19:20.624Z,4.60
2018-02-02T08:21:48.088Z,4.50
2018-02-02T08:24:15.567Z,4.60
2018-02-02T08:26:43.040Z,4.60
2018-02-02T08:29:10.624Z,4.60
2018-02-02T08:31:38.096Z,4.50
2018-02-02T08:34:05.560Z,4.60
2018-02-02T08:36:33.228Z,4.60
2018-02-02T08:39:00.692Z,4.40
2018-02-02T08:41:28.168Z,4.50
2018-02-02T08:43:55.636Z,4.50
2018-02-02T08:46:23.105Z,4.50
2018-02-02T08:48:50.568Z,4.60
2018-02-02T08:51:18.352Z,4.70
2018-02-02T08:53:45.924Z,4.70
2018-02-02T08:56:13.492Z,4.60
2018-02-02T08:58:40.958Z,4.60
2018-02-02T09:01:14.241Z,4.80
2018-02-02T09:03:41.724Z,4.70
2018-02-02T09:06:09.212Z,4.80
2018-02-02T09:08:36.788Z,4.70
2018-02-02T09:11:04.260Z,4.80
2018-02-02T09:13:31.727Z,4.80
2018-02-02T09:15:59.204Z,4.70
2018-02-02T09:18:26.679Z,4.60
2018-02-02T09:20:54.140Z,4.60
2018-02-02T09:23:21.625Z,4.70
2018-02-02T09:25:49.871Z,5.00
2018-02-02T09:28:17.341Z,5.00
2018-02-02T09:30:44.804Z,5.00
2018-02-02T09:33:12.272Z,5.10
2018-02-02T09:35:39.732Z,5.10
2018-02-02T09:38:07.230Z,5.10
2018-02-02T09:40:34.704Z,5.20
2018-02-02T09:43:02.184Z,5.20
2018-02-02T09:45:29.667Z,5.10
2018-02-02T09:47:57.908Z,5.20
2018-02-02T09:50:25.380Z,5.20
2018-02-02T09:52:52.852Z,5.00
2018-02-02T09:55:20.316Z,5.00
2018-02-02T09:57:47.787Z,5.10
2018-02-02T10:00:15.327Z,5.00
2018-02-02T10:02:42.848Z,5.10
2018-02-02T10:05:10.320Z,5.10
2018-02-02T10:07:37.889Z,5.10
2018-02-02T10:10:05.365Z,5.30
2018-02-02T10:12:32.844Z,5.40
2018-02-02T10:15:00.325Z,5.50
2018-02-02T10:17:28.788Z,5.60
2018-02-02T10:19:56.251Z,5.50
2018-02-02T10:22:23.712Z,5.50
2018-02-02T10:24:51.197Z,5.60
2018-02-02T10:27:18.657Z,5.60
2018-02-02T10:29:46.131Z,5.50
2018-02-02T10:32:13.615Z,5.60
2018-02-02T10:34:41.176Z,5.50
2018-02-02T10:37:09.417Z,5.40
2018-02-02T10:39:36.876Z,5.40
2018-02-02T10:42:04.344Z,5.40
2018-02-02T10:44:32.572Z,5.60
2018-02-02T10:47:00.061Z,5.60
2018-02-02T10:49:27.524Z,5.60
2018-02-02T10:51:54.985Z,5.60
2018-02-02T10:54:22.456Z,5.50
2018-02-02T10:56:49.920Z,5.60
2018-02-02T10:59:17.400Z,5.60
2018-02-02T11:01:44.859Z,5.70
2018-02-02T11:04:12.321Z,5.70
2018-02-02T11:06:39.789Z,5.70
2018-02-02T11:09:07.255Z,5.80
2018-02-02T11:11:34.720Z,5.90
2018-02-02T11:14:02.184Z,5.90
2018-02-02T11:16:29.683Z,6.00
2018-02-02T11:18:57.901Z,6.10
2018-02-02T11:21:26.129Z,6.20
2018-02-02T11:23:53.604Z,6.20
2018-02-02T11:26:21.067Z,6.20
2018-02-02T11:28:48.528Z,6.20
2018-02-02T11:31:16.000Z,6.20
2018-02-02T11:33:43.564Z,6.30
2018-02-02T11:36:11.791Z,6.40
2018-02-02T11:38:39.264Z,6.40
2018-02-02T11:41:06.728Z,6.40
2018-02-02T11:43:34.189Z,6.40
2018-02-02T11:46:01.672Z,6.50
2018-02-02T11:48:29.136Z,6.60
2018-02-02T11:50:56.596Z,6.60
2018-02-02T11:53:24.074Z,6.50
2018-02-02T11:55:51.532Z,6.50
2018-02-02T11:58:19.010Z,6.50
2018-02-02T12:00:46.628Z,6.60
2018-02-02T12:03:14.852Z,6.60
2018-02-02T12:05:42.328Z,6.60
2018-02-02T12:08:09.795Z,6.50
2018-02-02T12:10:37.261Z,6.40
2018-02-02T12:13:04.815Z,6.40
2018-02-02T12:15:33.047Z,6.30
2018-02-02T12:18:00.508Z,6.30
2018-02-02T12:20:28.740Z,6.20
2018-02-02T12:23:02.828Z,6.20
2018-02-02T12:25:34.392Z,6.20
2018-02-02T12:28:17.648Z,6.40
2018-02-02T12:30:49.618Z,6.50
2018-02-02T12:33:22.916Z,6.60
2018-02-02T12:35:55.044Z,6.70
2018-02-02T12:38:22.533Z,7.30
2018-02-02T12:40:49.995Z,7.90
2018-02-02T12:43:17.468Z,8.40
2018-02-02T12:45:44.976Z,8.80
2018-02-02T12:48:24.436Z,9.10
2018-02-02T12:51:00.894Z,9.50
2018-02-02T12:53:28.311Z,9.90
2018-02-02T12:55:56.544Z,11.00
2018-02-02T12:58:24.021Z,11.00
2018-02-02T13:00:51.492Z,11.30
2018-02-02T13:03:18.984Z,11.90
2018-02-02T13:05:46.449Z,11.90
2018-02-02T13:08:13.907Z,11.70
2018-02-02T13:10:41.436Z,11.40
2018-02-02T13:13:08.862Z,11.00
2018-02-02T13:15:36.320Z,10.10
2018-02-02T13:18:04.552Z,9.40
2018-02-02T13:20:32.814Z,9.10
2018-02-02T13:23:00.276Z,9.10
2018-02-02T13:25:27.778Z,9.00
2018-02-02T13:27:55.220Z,9.00
2018-02-02T13:30:22.673Z,8.80
2018-02-02T13:32:50.132Z,8.70
2018-02-02T13:35:17.592Z,8.70
2018-02-02T13:37:45.086Z,8.60
2018-02-02T13:40:12.544Z,8.50
2018-02-02T13:42:40.007Z,8.60
2018-02-02T13:45:07.480Z,8.40
2018-02-02T13:47:34.940Z,8.40
2018-02-02T13:50:02.463Z,8.40
2018-02-02T13:52:30.709Z,8.30
2018-02-02T13:54:59.052Z,8.30
2018-02-02T13:57:26.524Z,8.30
2018-02-02T13:59:54.752Z,8.10
2018-02-02T14:02:22.228Z,8.10
2018-02-02T14:04:49.700Z,8.00
2018-02-02T14:07:17.171Z,8.00
2018-02-02T14:09:44.667Z,8.00
2018-02-02T14:12:12.136Z,8.00
2018-02-02T14:14:40.352Z,7.90
2018-02-02T14:17:07.820Z,7.90
2018-02-02T14:19:35.280Z,8.00
2018-02-02T14:22:03.518Z,8.00
2018-02-02T14:24:30.977Z,8.00
2018-02-02T14:26:58.432Z,8.00
2018-02-02T14:29:25.902Z,8.00
2018-02-02T14:31:53.369Z,8.00
2018-02-02T14:34:20.836Z,7.90
2018-02-02T14:36:48.296Z,7.90
2018-02-02T14:39:15.781Z,7.90
2018-02-02T14:41:43.247Z,7.80
2018-02-02T14:44:10.733Z,7.80
2018-02-02T14:46:38.191Z,7.80
2018-02-02T14:49:05.650Z,7.80
2018-02-02T14:51:33.116Z,7.80
2018-02-02T14:54:00.616Z,7.80
2018-02-02T14:56:28.108Z,7.90
2018-02-02T14:58:55.564Z,7.90
2018-02-02T15:01:23.020Z,7.90
2018-02-02T15:03:50.492Z,7.90
2018-02-02T15:06:17.957Z,7.80
2018-02-02T15:08:45.412Z,7.70
2018-02-02T15:11:12.868Z,7.80
2018-02-02T15:13:40.333Z,7.90
2018-02-02T15:16:07.808Z,7.90
2018-02-02T15:18:35.273Z,7.80
2018-02-02T15:21:02.744Z,7.80
2018-02-02T15:23:30.308Z,7.70
2018-02-02T15:25:58.532Z,7.50
2018-02-02T15:28:26.089Z,7.50
2018-02-02T15:30:53.547Z,7.50
2018-02-02T15:33:21.012Z,7.50
2018-02-02T15:35:48.479Z,7.40
2018-02-02T15:38:15.941Z,7.50
2018-02-02T15:40:43.408Z,7.50
2018-02-02T15:43:10.872Z,7.50
2018-02-02T15:45:38.340Z,7.60
2018-02-02T15:48:06.566Z,7.60
2018-02-02T15:50:34.030Z,7.60
2018-02-02T15:53:01.500Z,7.70
2018-02-02T15:55:29.055Z,7.70
2018-02-02T15:57:56.508Z,7.60
2018-02-02T16:00:24.744Z,7.60
2018-02-02T16:02:52.221Z,7.60
2018-02-02T16:05:19.684Z,7.70
2018-02-02T16:07:47.148Z,7.70
2018-02-02T16:10:14.612Z,7.70
2018-02-02T16:12:42.072Z,7.70
2018-02-02T16:15:09.551Z,7.70
2018-02-02T16:17:37.016Z,7.70
2018-02-02T16:20:04.480Z,7.70
2018-02-02T16:22:31.947Z,7.70
2018-02-02T16:24:59.424Z,7.60
2018-02-02T16:27:26.896Z,7.60
2018-02-02T16:29:54.368Z,7.50
2018-02-02T16:32:22.952Z,7.30
2018-02-02T16:34:50.411Z,7.30
2018-02-02T16:37:17.872Z,7.20
2018-02-02T16:39:45.347Z,7.10
2018-02-02T16:42:12.800Z,7.00
2018-02-02T16:44:41.060Z,6.90
2018-02-02T16:47:08.540Z,6.90
2018-02-02T16:49:36.020Z,6.90
2018-02-02T16:52:04.257Z,6.80
2018-02-02T16:54:31.884Z,6.80
2018-02-02T16:57:00.105Z,6.70
2018-02-02T16:59:27.564Z,6.70
2018-02-02T17:01:55.032Z,6.70
2018-02-02T17:04:22.492Z,6.70
2018-02-02T17:06:49.968Z,6.60
2018-02-02T17:09:17.444Z,6.70
2018-02-02T17:11:44.932Z,6.60
2018-02-02T17:14:12.448Z,6.60
2018-02-02T17:16:40.696Z,6.70
2018-02-02T17:19:08.184Z,6.70
2018-02-02T17:21:35.706Z,6.70
2018-02-02T17:24:03.175Z,6.70
2018-02-02T17:26:30.666Z,6.70
2018-02-02T17:28:58.139Z,6.70
2018-02-02T17:31:25.685Z,6.80
2018-02-02T17:33:53.932Z,6.90
2018-02-02T17:36:21.400Z,6.90
2018-02-02T17:38:48.860Z,6.80
2018-02-02T17:41:16.348Z,7.00
2018-02-02T17:43:43.822Z,6.60
2018-02-02T17:46:11.288Z,6.40
2018-02-02T17:48:38.772Z,6.20
2018-02-02T17:51:07.030Z,6.10
2018-02-02T17:53:34.496Z,6.10
2018-02-02T17:56:01.972Z,6.00
2018-02-02T17:58:29.432Z,6.10
2018-02-02T18:00:57.778Z,6.00
2018-02-02T18:03:26.008Z,6.10
2018-02-02T18:05:53.484Z,6.10
2018-02-02T18:08:20.952Z,6.20
2018-02-02T18:10:48.432Z,6.30
2018-02-02T18:13:15.904Z,6.30
2018-02-02T18:15:43.368Z,6.30
2018-02-02T18:18:10.828Z,6.30
2018-02-02T18:20:38.284Z,6.20
2018-02-02T18:23:05.762Z,6.20
2018-02-02T18:25:34.138Z,6.10
2018-02-02T18:28:01.588Z,6.10
2018-02-02T18:30:29.049Z,6.00
2018-02-02T18:32:56.517Z,6.00
2018-02-02T18:35:24.044Z,6.10
2018-02-02T18:37:51.501Z,6.10
2018-02-02T18:40:18.956Z,6.10
2018-02-02T18:42:46.424Z,6.10
2018-02-02T18:45:13.890Z,5.90
2018-02-02T18:47:41.352Z,6.00
2018-02-02T18:50:08.808Z,6.00
2018-02-02T18:52:36.276Z,6.00
2018-02-02T18:55:03.732Z,6.00
2018-02-02T18:57:31.961Z,6.00
2018-02-02T18:59:59.428Z,6.00
2018-02-02T19:02:26.880Z,6.00
2018-02-02T19:04:54.355Z,6.10
2018-02-02T19:07:21.817Z,6.20
2018-02-02T19:09:49.272Z,6.20
2018-02-02T19:12:16.756Z,6.20
2018-02-02T19:14:44.228Z,6.10
2018-02-02T19:17:11.686Z,6.10
2018-02-02T19:19:39.919Z,6.10
2018-02-02T19:22:07.446Z,6.10
2018-02-02T19:24:35.751Z,6.10
2018-02-02T19:27:03.233Z,6.10
2018-02-02T19:29:30.774Z,6.10
2018-02-02T19:31:58.992Z,6.20
2018-02-02T19:34:26.460Z,6.20
2018-02-02T19:36:53.912Z,6.20
2018-02-02T19:39:21.388Z,6.30
2018-02-02T19:41:48.840Z,6.30
2018-02-02T19:44:16.302Z,6.40
2018-02-02T19:46:44.536Z,6.30
2018-02-02T19:49:11.992Z,6.30
2018-02-02T19:51:39.460Z,6.30
2018-02-02T19:54:06.917Z,6.30
2018-02-02T19:56:34.376Z,6.30
2018-02-02T19:59:01.848Z,6.30
2018-02-02T20:01:29.300Z,6.20
2018-02-02T20:03:57.533Z,6.00
2018-02-02T20:06:24.992Z,6.00
2018-02-02T20:08:52.457Z,6.00
2018-02-02T20:11:20.318Z,6.00
2018-02-02T20:13:48.768Z,6.10
2018-02-02T20:16:16.232Z,6.10
2018-02-02T20:18:43.695Z,6.00
2018-02-02T20:21:11.173Z,5.90
2018-02-02T20:23:38.636Z,5.80
2018-02-02T20:26:06.100Z,5.70
2018-02-02T20:28:33.572Z,5.80
2018-02-02T20:31:01.033Z,5.80
2018-02-02T20:33:29.268Z,5.70
2018-02-02T20:35:57.504Z,5.80
2018-02-02T20:38:25.042Z,5.80
2018-02-02T20:40:52.505Z,5.70
2018-02-02T20:43:20.741Z,5.90
2018-02-02T20:45:48.220Z,5.90
2018-02-02T20:48:15.696Z,5.90
2018-02-02T20:50:43.172Z,5.90
2018-02-02T20:53:10.641Z,5.90
2018-02-02T20:55:38.121Z,5.80
2018-02-02T20:58:05.576Z,5.70
2018-02-02T21:00:33.041Z,5.60
2018-02-02T21:03:00.557Z,5.70
2018-02-02T21:05:27.996Z,5.80
2018-02-02T21:07:55.461Z,5.80
2018-02-02T21:10:22.923Z,5.70
2018-02-02T21:12:50.396Z,5.80
2018-02-02T21:15:17.863Z,5.80
2018-02-02T21:17:45.328Z,5.70
2018-02-02T21:20:12.784Z,5.70
2018-02-02T21:22:40.248Z,5.70
2018-02-02T21:25:07.742Z,5.80
2018-02-02T21:27:35.204Z,5.80
2018-02-02T21:30:02.672Z,5.80
2018-02-02T21:32:30.148Z,5.70
2018-02-02T21:34:57.624Z,5.70
2018-02-02T21:37:25.096Z,5.60
2018-02-02T21:39:52.572Z,5.60
2018-02-02T21:42:20.048Z,5.60
2018-02-02T21:44:48.308Z,5.60
2018-02-02T21:47:15.776Z,5.60
2018-02-02T21:49:43.248Z,5.70
2018-02-02T21:52:10.712Z,5.90
2018-02-02T21:54:38.169Z,5.90
2018-02-02T21:57:05.855Z,5.90
2018-02-02T21:59:33.316Z,5.70
2018-02-02T22:02:00.780Z,5.80
2018-02-02T22:04:28.256Z,5.80
2018-02-02T22:06:55.739Z,5.70
2018-02-02T22:09:23.200Z,5.60
2018-02-02T22:11:51.431Z,5.70
2018-02-02T22:14:19.668Z,5.60
2018-02-02T22:16:47.140Z,5.60
2018-02-02T22:19:14.614Z,5.40
2018-02-02T22:21:42.080Z,5.30
2018-02-02T22:24:09.541Z,5.40
2018-02-02T22:26:37.026Z,5.30
2018-02-02T22:29:04.500Z,5.10
2018-02-02T22:31:31.974Z,5.00
2018-02-02T22:33:59.452Z,5.10
2018-02-02T22:36:26.924Z,5.10
2018-02-02T22:38:54.396Z,5.10
2018-02-02T22:41:22.638Z,5.30
2018-02-02T22:43:50.140Z,5.30
2018-02-02T22:46:17.604Z,5.30
2018-02-02T22:48:45.064Z,5.20
2018-02-02T22:51:13.308Z,5.30
2018-02-02T22:53:40.768Z,5.30
2018-02-02T22:56:08.999Z,5.30
2018-02-02T22:58:36.468Z,5.30
2018-02-02T23:01:03.932Z,5.30
2018-02-02T23:03:31.474Z,5.20
2018-02-02T23:05:59.691Z,5.10
2018-02-02T23:08:27.152Z,5.10
2018-02-02T23:10:54.623Z,5.10
2018-02-02T23:13:22.084Z,5.20
2018-02-02T23:15:49.571Z,5.30
2018-02-02T23:18:17.040Z,5.30
2018-02-02T23:20:44.504Z,5.30
2018-02-02T23:23:11.977Z,5.40
2018-02-02T23:25:39.469Z,5.50
2018-02-02T23:28:06.939Z,5.50
2018-02-02T23:30:35.904Z,5.10
2018-02-02T23:33:03.529Z,5.10
2018-02-02T23:35:31.024Z,5.20
2018-02-02T23:37:59.253Z,5.00
2018-02-02T23:40:26.732Z,5.00
2018-02-02T23:42:54.204Z,5.00
2018-02-02T23:45:21.672Z,5.10
2018-02-02T23:47:49.155Z,5.10
2018-02-02T23:50:16.616Z,5.00
2018-02-02T23:52:44.079Z,5.10
2018-02-02T23:55:11.541Z,5.20
2018-02-02T23:57:39.011Z,5.20
